• Join FlightAware (Why Join?)
  • Login
  • US Flag 
01:29PM EDT


 

Airport Tracker/Info


-or-


 

Live Flight TrackerFlight Track Log ✈ N840DP ✈ 16-Jul-2013 ✈ KARR - KGKJ

Flight Track Log - Related Links

Times and Time Zones

All times are in EDT time to prevent confusion due to time zone crossing. See the N840DP flight status page for this flight to view local times or setup timezone preferences in your user account.

Time Position Orientation Groundspeed Altitude Reporting Facility
EDT Latitude Longitude Course Direction KTS MPH feet Rate Location/Type
05:58PM 41.7667 -88.5167 143° Southeast 185 213 1,700  Level Chicago TRACON
05:59PM 41.7167 -88.4667 143° Southeast 254 292 4,900 2,760 Climbing Chicago TRACON
06:00PM 41.6833 -88.3833 118° Southeast 281 323 7,600 2,820 Climbing Chicago TRACON
06:01PM 41.6875 -88.2567 87° East 277 319 11,700 2,820 Climbing Chicago Center
06:02PM 41.7308 -88.1581 59° Northeast 307 353 14,600 2,640 Climbing Chicago Center
06:03PM 41.7692 -88.0267 69° East 329 379 17,200 2,400 Climbing Chicago Center
06:04PM 41.7675 -87.9044 91° East 330 380 19,600 1,860 Climbing Chicago Center
06:05PM 41.7669 -87.7772 90° East 341 392 21,100 1,500 Climbing Chicago Center
06:06PM 41.7675 -87.6406 90° East 364 419 22,700 1,500 Climbing Chicago Center
06:07PM 41.7686 -87.4997 89° East 376 433 24,200 1,500 Climbing Chicago Center
06:09PM 41.7697 -87.3278 89° East 385 443 25,900 1,500 Climbing Chicago Center
06:10PM 41.7692 -87.1833 90° East 387 445 27,400 1,440 Climbing Chicago Center
06:11PM 41.7697 -87.0397 90° East 388 447 28,900 1,380 Climbing Chicago Center
06:12PM 41.7689 -86.8972 90° East 386 444 30,300 960 Climbing Chicago Center
06:13PM 41.7706 -86.7564 89° East 381 438 31,000 300 Climbing Chicago Center
06:14PM 41.7692 -86.5975 91° East 402 463 31,000  Level Chicago Center
06:15PM 41.7692 -86.4372 90° East 424 488 31,000  Level Chicago Center
06:16PM 41.7678 -86.2731 91° East 438 504 31,000  Level Chicago Center
06:17PM 41.7681 -86.0714 90° East 449 517 31,000  Level Chicago Center
06:18PM 41.7692 -85.9006 89° East 457 526 31,000  Level Chicago Center
06:19PM 41.7686 -85.7306 90° East 455 524 31,000  Level Chicago Center
06:20PM 41.7694 -85.5561 90° East 463 533 31,000  Level Chicago Center
06:21PM 41.7711 -85.3781 89° East 465 535 31,000  Level Chicago Center
06:22PM 41.7683 -85.2025 91° East 474 545 31,000  Level Chicago Center
06:23PM 41.7672 -85.0289 90° East 469 540 31,000  Level Chicago Center
06:24PM 41.7647 -84.8558 91° East 467 537 31,000  Level Chicago Center
06:25PM 41.7617 -84.6478 91° East 468 539 31,000  Level Chicago Center
06:26PM 41.7592 -84.4750 91° East 465 535 31,000  Level Chicago Center
06:27PM 41.7569 -84.2689 91° East 464 534 31,000  Level Cleveland Center
06:28PM 41.7511 -84.1153 93° East 457 526 31,000  Level Cleveland Center
06:29PM 41.7503 -83.9428 90° East 462 532 31,000  Level Cleveland Center
06:30PM 41.7447 -83.7700 92° East 462 532 31,000  Level Cleveland Center
06:31PM 41.7389 -83.5942 92° East 462 532 31,000  Level Cleveland Center
06:32PM 41.7372 -83.4189 91° East 462 532 31,000  Level Cleveland Center
06:33PM 41.7331 -83.2433 92° East 462 532 31,000  Level Cleveland Center
06:34PM 41.7308 -83.0706 91° East 462 532 31,000  Level Cleveland Center
06:35PM 41.7261 -82.8953 92° East 462 532 31,000 -120 Level Cleveland Center
06:36PM 41.7194 -82.7003 93° East 467 537 30,800 -540 Descending Cleveland Center
06:37PM 41.7142 -82.5247 92° East 467 537 30,000 -900 Descending Cleveland Center
06:38PM 41.7086 -82.3494 92° East 467 537 29,000 -1,320 Descending Cleveland Center
06:39PM 41.7050 -82.1711 91° East 467 537 27,400 -1,620 Descending Cleveland Center
06:40PM 41.7031 -82.0128 91° East 473 544 25,800 -1,860 Descending Cleveland Center
06:41PM 41.6944 -81.8400 94° East 473 544 23,700 -2,220 Descending Cleveland Center
06:42PM 41.6903 -81.6536 92° East 463 533 21,400 -2,460 Descending Cleveland Center
06:43PM 41.6811 -81.4894 94° East 453 521 18,800 -2,460 Descending Cleveland Center
06:44PM 41.6761 -81.3308 92° East 438 504 16,500 -2,460 Descending Cleveland Center
06:45PM 41.6708 -81.1808 93° East 416 479 13,900 -2,580 Descending Cleveland Center
06:46PM 41.6631 -81.0417 94° East 385 443 11,400 -1,920 Descending Cleveland Center
06:47PM 41.6592 -80.9222 92° East 341 392 10,100 -1,140 Descending Cleveland Center
06:48PM 41.6553 -80.8278 93° East 305 351 9,200 -1,200 Descending Cleveland Center
06:49PM 41.6492 -80.7164 94° East 289 333 7,700 -1,500 Descending Cleveland Center
06:50PM 41.6431 -80.6136 95° East 289 333 6,200 -1,500 Descending Cleveland Center
06:51PM 41.6411 -80.5108 91° East 283 326 4,700 -1,140 Descending Cleveland Center
06:52PM 41.6347 -80.4081 95° East 278 320 4,000 -660 Descending Cleveland Center
06:53PM 41.6239 -80.2969 97° East 278 320 3,400 -600 Descending Cleveland Center
06:54PM 41.5906 -80.2306 124° Southeast 244 281 2,900 -480 Descending Cleveland Center
06:55PM 41.6111 -80.1667 67° East 194 223 2,500 -420 Descending Cleveland Center
06:57PM 41.6167 -80.2000 304° West  Level FlightAware Approximate
07:04PM 41.6265 -80.2147 304° West  Level Estimated